createdAt,value
2023-01-02T00:01:08.399Z,10.33
2023-01-02T00:03:38.153Z,10.38
2023-01-02T00:06:08.243Z,10.39
2023-01-02T00:08:37.466Z,10.38
2023-01-02T00:11:06.892Z,10.43
2023-01-02T00:13:36.186Z,10.45
2023-01-02T00:16:05.805Z,10.39
2023-01-02T00:18:35.223Z,10.40
2023-01-02T00:21:05.716Z,10.49
2023-01-02T00:23:35.598Z,10.57
2023-01-02T00:26:06.272Z,10.56
2023-01-02T00:28:36.738Z,10.51
2023-01-02T00:31:11.235Z,10.59
2023-01-02T00:33:41.166Z,10.61
2023-01-02T00:36:12.770Z,10.66
2023-01-02T00:38:42.372Z,10.70
2023-01-02T00:41:12.148Z,10.67
2023-01-02T00:43:42.989Z,10.74
2023-01-02T00:46:12.600Z,10.77
2023-01-02T00:48:42.158Z,10.73
2023-01-02T00:51:12.217Z,10.71
2023-01-02T00:53:41.632Z,10.82
2023-01-02T00:56:10.882Z,10.82
2023-01-02T00:58:40.627Z,10.86
2023-01-02T01:01:10.089Z,10.88
2023-01-02T01:03:39.312Z,10.81
2023-01-02T01:06:10.751Z,10.81
2023-01-02T01:08:40.477Z,10.85
2023-01-02T01:11:12.551Z,10.87
2023-01-02T01:13:42.157Z,10.91
2023-01-02T01:16:15.402Z,10.93
2023-01-02T01:18:45.441Z,11.02
2023-01-02T01:21:19.678Z,10.93
2023-01-02T01:23:54.091Z,10.93
2023-01-02T01:26:23.852Z,10.87
2023-01-02T01:28:57.218Z,10.89
2023-01-02T01:31:26.661Z,10.85
2023-01-02T01:33:56.560Z,10.79
2023-01-02T01:36:26.321Z,10.76
2023-01-02T01:38:55.869Z,10.87
2023-01-02T01:41:29.048Z,10.88
2023-01-02T01:44:01.394Z,10.86
2023-01-02T01:46:39.518Z,10.78
2023-01-02T01:49:17.281Z,10.77
2023-01-02T01:51:51.802Z,10.78
2023-01-02T01:54:24.554Z,10.86
2023-01-02T01:56:56.842Z,10.85
2023-01-02T01:59:26.956Z,10.90
2023-01-02T02:01:56.367Z,10.88
2023-01-02T02:04:26.886Z,10.89
2023-01-02T02:06:56.249Z,10.97
2023-01-02T02:09:28.922Z,11.01
2023-01-02T02:11:58.327Z,11.13
2023-01-02T02:14:27.824Z,11.14
2023-01-02T02:17:17.613Z,11.22
2023-01-02T02:20:10.027Z,11.20
2023-01-02T02:22:48.369Z,11.28
2023-01-02T02:25:20.966Z,11.18
2023-01-02T02:27:59.875Z,11.12
2023-01-02T02:30:39.334Z,11.17
2023-01-02T02:33:34.709Z,11.19
2023-01-02T02:36:30.149Z,11.25
2023-01-02T02:39:14.577Z,11.30
2023-01-02T02:42:08.365Z,11.33
2023-01-02T02:44:43.764Z,11.30
2023-01-02T02:47:38.121Z,11.27
2023-01-02T02:50:25.577Z,11.41
2023-01-02T02:53:16.860Z,11.45
2023-01-02T02:55:49.235Z,11.46
2023-01-02T02:58:20.284Z,11.45
2023-01-02T03:00:49.743Z,11.48
2023-01-02T03:03:24.439Z,11.36
2023-01-02T03:06:15.909Z,11.45
2023-01-02T03:09:11.364Z,11.42
2023-01-02T03:11:54.722Z,11.45
2023-01-02T03:14:56.124Z,11.39
2023-01-02T03:17:32.109Z,11.43
2023-01-02T03:20:04.455Z,11.49
2023-01-02T03:22:36.224Z,11.46
2023-01-02T03:25:05.995Z,11.49
2023-01-02T03:27:37.180Z,11.38
2023-01-02T03:30:12.705Z,11.39
2023-01-02T03:32:45.273Z,11.35
2023-01-02T03:35:15.554Z,11.33
2023-01-02T03:37:47.386Z,11.31
2023-01-02T03:40:19.611Z,11.26
2023-01-02T03:42:55.070Z,11.24
2023-01-02T03:45:27.365Z,11.19
2023-01-02T03:48:17.519Z,11.20
2023-01-02T03:50:54.963Z,11.22
2023-01-02T03:53:24.763Z,11.20
2023-01-02T03:56:20.104Z,11.25
2023-01-02T03:58:55.852Z,11.20
2023-01-02T04:01:48.172Z,11.21
2023-01-02T04:04:20.857Z,11.19
2023-01-02T04:06:52.411Z,11.21
2023-01-02T04:09:27.194Z,11.19
2023-01-02T04:11:59.591Z,11.12
2023-01-02T04:14:41.302Z,11.19
2023-01-02T04:17:10.857Z,11.24
2023-01-02T04:19:43.309Z,11.22
2023-01-02T04:22:15.409Z,11.21
2023-01-02T04:24:47.651Z,11.23
2023-01-02T04:27:31.798Z,11.16
2023-01-02T04:30:01.497Z,11.20
2023-01-02T04:32:36.777Z,11.25
2023-01-02T04:35:14.649Z,11.25
2023-01-02T04:37:45.075Z,11.33
2023-01-02T04:40:34.359Z,11.34
2023-01-02T04:43:03.557Z,11.33
2023-01-02T04:45:32.833Z,11.33
2023-01-02T04:48:02.019Z,11.35
2023-01-02T04:50:31.265Z,11.32
2023-01-02T04:53:00.688Z,11.38
2023-01-02T04:55:30.198Z,11.37
2023-01-02T04:57:59.655Z,11.33
2023-01-02T05:00:29.399Z,11.31
2023-01-02T05:02:58.592Z,11.28
2023-01-02T05:05:28.115Z,11.33
2023-01-02T05:07:59.394Z,11.27
2023-01-02T05:10:28.912Z,11.24
2023-01-02T05:12:59.815Z,11.12
2023-01-02T05:15:29.881Z,11.04
2023-01-02T05:17:59.914Z,10.99
2023-01-02T05:20:29.147Z,11.01
2023-01-02T05:23:16.413Z,11.02
2023-01-02T05:25:45.641Z,11.05
2023-01-02T05:28:16.523Z,10.24
2023-01-02T05:30:45.733Z,9.54
2023-01-02T05:33:15.537Z,9.22
2023-01-02T05:35:44.740Z,9.08
2023-01-02T05:38:14.092Z,8.90
2023-01-02T05:40:43.296Z,8.73
2023-01-02T05:43:12.506Z,8.64
2023-01-02T05:45:41.721Z,8.60
2023-01-02T05:48:10.939Z,8.58
2023-01-02T05:50:40.163Z,8.52
2023-01-02T05:53:11.098Z,8.49
2023-01-02T05:55:40.659Z,8.46
2023-01-02T05:58:10.082Z,8.43
2023-01-02T06:00:39.406Z,8.43
2023-01-02T06:03:08.719Z,8.40
2023-01-02T06:05:38.510Z,8.35
2023-01-02T06:08:07.812Z,8.35
2023-01-02T06:10:37.019Z,8.33
2023-01-02T06:13:06.247Z,8.36
2023-01-02T06:15:35.895Z,8.36
2023-01-02T06:18:05.171Z,8.30
2023-01-02T06:20:34.378Z,8.30
2023-01-02T06:23:03.600Z,8.28
2023-01-02T06:25:34.880Z,8.25
2023-01-02T06:28:04.225Z,8.25
2023-01-02T06:30:33.744Z,8.22
2023-01-02T06:33:03.268Z,8.21
2023-01-02T06:35:33.060Z,8.21
2023-01-02T06:38:02.574Z,8.20
2023-01-02T06:40:32.051Z,8.14
2023-01-02T06:43:01.942Z,8.13
2023-01-02T06:45:31.768Z,8.13
2023-01-02T06:48:01.227Z,8.13
2023-01-02T06:50:34.868Z,8.14
2023-01-02T06:53:01.645Z,8.08
2023-01-02T06:55:31.148Z,8.12
2023-01-02T06:58:04.849Z,8.08
2023-01-02T07:00:31.485Z,8.08
2023-01-02T07:03:00.779Z,8.09
2023-01-02T07:05:30.600Z,8.07
2023-01-02T07:07:59.813Z,8.07
2023-01-02T07:10:29.525Z,8.08
2023-01-02T07:12:59.051Z,8.09
2023-01-02T07:15:28.320Z,8.09
2023-01-02T07:17:57.855Z,8.03
2023-01-02T07:20:27.077Z,8.03
2023-01-02T07:22:56.441Z,8.01
2023-01-02T07:25:25.919Z,7.98
2023-01-02T07:27:55.359Z,8.00
2023-01-02T07:30:24.757Z,7.99
2023-01-02T07:32:55.196Z,7.99
2023-01-02T07:35:24.801Z,7.93
2023-01-02T07:37:54.412Z,7.93
2023-01-02T07:40:27.329Z,7.91
2023-01-02T07:42:55.560Z,7.87
2023-01-02T07:45:24.797Z,7.85
2023-01-02T07:47:53.987Z,7.77
2023-01-02T07:50:23.427Z,7.72
2023-01-02T07:52:52.657Z,7.73
2023-01-02T07:55:22.074Z,7.73
2023-01-02T07:57:51.287Z,7.72
2023-01-02T08:00:20.922Z,7.73
2023-01-02T08:02:51.869Z,7.75
2023-01-02T08:05:21.382Z,7.81
2023-01-02T08:07:50.931Z,7.84
2023-01-02T08:10:20.232Z,7.87
2023-01-02T08:12:49.604Z,7.85
2023-01-02T08:15:18.873Z,7.84
2023-01-02T08:17:48.094Z,7.85
2023-01-02T08:20:18.530Z,7.84
2023-01-02T08:22:48.247Z,7.85
2023-01-02T08:25:17.988Z,7.84
2023-01-02T08:27:47.333Z,7.86
2023-01-02T08:30:16.650Z,7.87
2023-01-02T08:32:46.178Z,7.88
2023-01-02T08:35:15.846Z,7.91
2023-01-02T08:37:50.290Z,7.93
2023-01-02T08:40:16.307Z,7.95
2023-01-02T08:42:45.764Z,7.89
2023-01-02T08:45:15.070Z,7.87
2023-01-02T08:47:44.566Z,7.87
2023-01-02T08:50:13.978Z,7.84
2023-01-02T08:52:43.614Z,7.89
2023-01-02T08:55:13.729Z,7.88
2023-01-02T08:57:43.278Z,7.88
2023-01-02T09:00:13.792Z,7.87
2023-01-02T09:02:43.513Z,7.87
2023-01-02T09:05:13.162Z,7.85
2023-01-02T09:07:43.548Z,7.86
2023-01-02T09:10:12.868Z,7.87
2023-01-02T09:12:42.151Z,7.87
2023-01-02T09:15:12.265Z,7.89
2023-01-02T09:17:41.824Z,7.94
2023-01-02T09:20:11.478Z,7.97
2023-01-02T09:22:40.779Z,8.01
2023-01-02T09:25:10.789Z,8.01
2023-01-02T09:27:40.002Z,7.96
2023-01-02T09:30:11.028Z,7.97
2023-01-02T09:32:40.365Z,7.95
2023-01-02T09:35:10.123Z,7.90
2023-01-02T09:37:39.339Z,7.88
2023-01-02T09:40:09.858Z,7.79
2023-01-02T09:42:39.309Z,7.84
2023-01-02T09:45:10.075Z,7.87
2023-01-02T09:47:40.371Z,7.83
2023-01-02T09:50:18.571Z,7.88
2023-01-02T09:52:50.972Z,7.86
2023-01-02T09:55:23.846Z,7.92
2023-01-02T09:58:21.780Z,7.93
2023-01-02T10:00:52.081Z,7.96
2023-01-02T10:03:47.274Z,8.07
2023-01-02T10:06:18.915Z,8.09
2023-01-02T10:08:57.319Z,8.13
2023-01-02T10:11:51.309Z,8.15
2023-01-02T10:14:42.076Z,8.23
2023-01-02T10:17:07.661Z,8.27
2023-01-02T10:19:57.915Z,8.41
2023-01-02T10:22:38.791Z,8.56
2023-01-02T10:25:18.790Z,8.50
2023-01-02T10:27:53.877Z,8.54
2023-01-02T10:30:29.308Z,8.68
2023-01-02T10:33:04.060Z,8.43
2023-01-02T10:35:44.434Z,8.41
2023-01-02T10:38:15.602Z,8.46
2023-01-02T10:40:46.659Z,8.46
2023-01-02T10:43:17.017Z,8.50
2023-01-02T10:45:46.255Z,8.43
2023-01-02T10:48:15.764Z,8.40
2023-01-02T10:50:48.214Z,8.39
2023-01-02T10:53:33.196Z,8.41
2023-01-02T10:56:04.246Z,8.48
2023-01-02T10:58:35.816Z,8.42
2023-01-02T11:01:20.316Z,8.41
2023-01-02T11:03:52.720Z,8.48
2023-01-02T11:06:30.166Z,8.47
2023-01-02T11:09:00.602Z,8.52
2023-01-02T11:11:32.098Z,8.63
2023-01-02T11:14:09.276Z,8.67
2023-01-02T11:16:40.060Z,8.74
2023-01-02T11:19:12.698Z,8.82
2023-01-02T11:21:41.739Z,8.78
2023-01-02T11:24:17.092Z,8.81
2023-01-02T11:26:49.737Z,8.81
2023-01-02T11:29:25.247Z,8.90
2023-01-02T11:32:01.405Z,8.90
2023-01-02T11:34:40.039Z,8.91
2023-01-02T11:37:15.983Z,8.92
2023-01-02T11:40:00.088Z,8.89
2023-01-02T11:42:58.740Z,8.83
2023-01-02T11:45:28.309Z,8.85
2023-01-02T11:48:00.684Z,8.70
2023-01-02T11:50:37.448Z,8.73
2023-01-02T11:53:15.724Z,8.69
2023-01-02T11:56:10.814Z,8.75
2023-01-02T11:59:06.052Z,8.65
2023-01-02T12:01:43.006Z,8.66
2023-01-02T12:04:14.014Z,8.67
2023-01-02T12:07:02.941Z,8.61
2023-01-02T12:09:35.640Z,8.67
2023-01-02T12:12:20.882Z,8.64
2023-01-02T12:15:08.747Z,8.62
2023-01-02T12:17:53.338Z,8.57
2023-01-02T12:20:26.055Z,8.58
2023-01-02T12:22:58.435Z,8.56
2023-01-02T12:25:51.712Z,8.60
2023-01-02T12:28:43.780Z,8.55
2023-01-02T12:31:16.832Z,8.51
2023-01-02T12:33:54.814Z,8.48
2023-01-02T12:36:33.431Z,8.44
2023-01-02T12:39:05.844Z,8.38
2023-01-02T12:42:02.143Z,8.35
2023-01-02T12:44:27.233Z,8.32
2023-01-02T12:47:07.732Z,8.26
2023-01-02T12:49:56.650Z,8.22
2023-01-02T12:52:48.968Z,8.14
2023-01-02T12:55:27.249Z,8.13
2023-01-02T12:58:17.353Z,8.11
2023-01-02T13:01:08.219Z,8.06
2023-01-02T13:03:43.476Z,8.07
2023-01-02T13:06:44.907Z,8.05
2023-01-02T13:09:20.098Z,8.07
2023-01-02T13:11:48.619Z,8.07
2023-01-02T13:14:20.301Z,8.03
2023-01-02T13:16:53.198Z,8.05
2023-01-02T13:19:34.485Z,8.03
2023-01-02T13:22:25.837Z,8.03
2023-01-02T13:24:56.982Z,8.03
2023-01-02T13:27:26.721Z,8.08
2023-01-02T13:29:56.164Z,8.07
2023-01-02T13:32:29.729Z,8.08
2023-01-02T13:35:01.721Z,8.14
2023-01-02T13:37:32.043Z,8.15
2023-01-02T13:40:03.167Z,8.13
2023-01-02T13:42:54.666Z,8.09
2023-01-02T13:45:32.827Z,8.14
2023-01-02T13:48:08.442Z,8.16
2023-01-02T13:50:39.461Z,8.17
2023-01-02T13:53:14.616Z,8.18
2023-01-02T13:56:02.093Z,8.15
2023-01-02T13:58:44.224Z,8.19
2023-01-02T14:01:26.096Z,8.18
2023-01-02T14:04:20.915Z,8.15
2023-01-02T14:06:54.146Z,8.14
2023-01-02T14:09:23.363Z,8.14
2023-01-02T14:12:01.169Z,8.17
2023-01-02T14:14:44.261Z,8.16
2023-01-02T14:17:25.873Z,8.18
2023-01-02T14:20:18.469Z,8.22
2023-01-02T14:22:52.967Z,8.22
2023-01-02T14:25:23.432Z,8.14
2023-01-02T14:27:55.829Z,8.10
2023-01-02T14:30:42.071Z,8.12
2023-01-02T14:33:15.980Z,8.07
2023-01-02T14:35:52.165Z,8.03
2023-01-02T14:38:26.264Z,8.03
2023-01-02T14:40:57.437Z,8.02
2023-01-02T14:43:36.777Z,8.04
2023-01-02T14:46:24.125Z,8.05
2023-01-02T14:49:25.438Z,8.05
2023-01-02T14:51:47.790Z,8.04
2023-01-02T14:54:20.213Z,8.04
2023-01-02T14:56:52.653Z,8.07
2023-01-02T14:59:29.778Z,8.03
2023-01-02T15:02:04.669Z,8.03
2023-01-02T15:04:40.067Z,8.01
2023-01-02T15:07:31.823Z,8.03
2023-01-02T15:10:04.007Z,8.06
2023-01-02T15:12:53.219Z,8.05
2023-01-02T15:15:27.983Z,8.03
2023-01-02T15:18:03.735Z,8.05
2023-01-02T15:20:35.581Z,8.06
2023-01-02T15:23:05.919Z,8.08
2023-01-02T15:25:40.374Z,8.10
2023-01-02T15:28:12.758Z,8.12
2023-01-02T15:30:44.434Z,8.09
2023-01-02T15:33:32.754Z,8.05
2023-01-02T15:36:10.594Z,8.11
2023-01-02T15:38:39.833Z,8.09
2023-01-02T15:41:09.596Z,8.12
2023-01-02T15:43:58.502Z,8.15
2023-01-02T15:46:28.149Z,8.08
2023-01-02T15:48:57.503Z,7.97
2023-01-02T15:51:40.588Z,7.96
2023-01-02T15:54:03.289Z,7.93
2023-01-02T15:56:41.430Z,7.86
2023-01-02T15:59:28.408Z,7.86
2023-01-02T16:01:58.146Z,7.80
2023-01-02T16:04:29.716Z,7.82
2023-01-02T16:07:00.583Z,7.74
2023-01-02T16:09:34.089Z,7.81
2023-01-02T16:12:04.672Z,7.80
2023-01-02T16:14:45.007Z,7.84
2023-01-02T16:17:29.944Z,7.86
2023-01-02T16:20:00.568Z,7.79
2023-01-02T16:22:48.686Z,7.76
2023-01-02T16:25:23.907Z,7.71
2023-01-02T16:28:35.716Z,7.71
2023-01-02T16:30:44.644Z,7.62
2023-01-02T16:33:26.703Z,7.67
2023-01-02T16:36:07.959Z,7.64
2023-01-02T16:38:59.921Z,7.65
2023-01-02T16:41:37.350Z,7.60
2023-01-02T16:44:12.829Z,7.63
2023-01-02T16:46:44.187Z,7.54
2023-01-02T16:49:15.887Z,7.54
2023-01-02T16:51:47.040Z,7.53
2023-01-02T16:54:17.979Z,7.52
2023-01-02T16:56:48.299Z,7.52
2023-01-02T16:59:17.748Z,7.53
2023-01-02T17:01:47.145Z,7.52
2023-01-02T17:04:16.984Z,7.58
2023-01-02T17:06:46.317Z,7.60
2023-01-02T17:09:15.828Z,7.53
2023-01-02T17:11:46.979Z,7.42
2023-01-02T17:14:16.620Z,7.27
2023-01-02T17:16:46.277Z,7.12
2023-01-02T17:19:15.836Z,7.11
2023-01-02T17:21:45.611Z,7.09
2023-01-02T17:24:14.836Z,7.05
2023-01-02T17:26:44.290Z,7.07
2023-01-02T17:29:13.592Z,7.05
2023-01-02T17:31:43.408Z,7.12
2023-01-02T17:34:12.862Z,7.08
2023-01-02T17:36:42.452Z,7.09
2023-01-02T17:39:11.979Z,7.11
2023-01-02T17:41:41.564Z,7.12
2023-01-02T17:44:11.164Z,7.08
2023-01-02T17:49:11.952Z,7.10
2023-01-02T17:51:41.472Z,7.06
2023-01-02T17:54:10.788Z,7.00
2023-01-02T17:56:40.657Z,6.94
2023-01-02T17:59:10.286Z,6.94
2023-01-02T18:01:40.086Z,6.89
2023-01-02T18:04:09.402Z,6.84
2023-01-02T18:06:39.430Z,6.79
2023-01-02T18:09:08.892Z,6.72
2023-01-02T18:11:38.266Z,6.75
2023-01-02T18:14:22.768Z,6.71
2023-01-02T18:16:54.180Z,6.72
2023-01-02T18:19:27.176Z,6.81
2023-01-02T18:21:56.487Z,6.79
2023-01-02T18:24:32.846Z,6.75
2023-01-02T18:27:22.038Z,6.62
2023-01-02T18:29:54.715Z,6.63
2023-01-02T18:32:35.588Z,6.62
2023-01-02T18:37:57.392Z,6.42
2023-01-02T18:40:33.081Z,6.42
2023-01-02T18:43:17.580Z,6.50
2023-01-02T18:45:51.762Z,6.40
2023-01-02T18:48:21.695Z,6.28
2023-01-02T18:50:59.662Z,6.24
2023-01-02T18:53:37.468Z,6.33
2023-01-02T18:56:16.326Z,6.28
2023-01-02T18:58:49.069Z,6.24
2023-01-02T19:01:30.391Z,6.25
2023-01-02T19:04:22.106Z,6.17
2023-01-02T19:06:43.238Z,6.11
2023-01-02T19:09:17.549Z,6.03
2023-01-02T19:12:09.102Z,5.95
2023-01-02T19:14:43.777Z,5.88
2023-01-02T19:17:19.623Z,5.85
2023-01-02T19:19:49.188Z,5.76
2023-01-02T19:22:20.929Z,5.66
2023-01-02T19:24:50.606Z,5.45
2023-01-02T19:27:25.595Z,5.20
2023-01-02T19:29:55.651Z,5.06
2023-01-02T19:32:28.047Z,4.95
2023-01-02T19:35:02.045Z,5.03
2023-01-02T19:37:42.049Z,4.99
2023-01-02T19:40:19.403Z,4.97
2023-01-02T19:42:46.798Z,4.85
2023-01-02T19:45:19.084Z,4.83
2023-01-02T19:47:49.570Z,4.87
2023-01-02T19:50:22.447Z,4.77
2023-01-02T19:52:52.217Z,4.75
2023-01-02T19:55:21.594Z,4.70
2023-01-02T19:57:50.875Z,4.66
2023-01-02T20:00:20.808Z,4.60
2023-01-02T20:02:52.041Z,4.68
2023-01-02T20:05:23.149Z,4.66
2023-01-02T20:07:54.076Z,4.53
2023-01-02T20:10:23.911Z,4.51
2023-01-02T20:12:55.109Z,4.54
2023-01-02T20:15:26.464Z,4.52
2023-01-02T20:17:55.941Z,4.52
2023-01-02T20:20:28.615Z,4.45
2023-01-02T20:22:58.268Z,4.52
2023-01-02T20:25:27.582Z,4.60
2023-01-02T20:27:57.716Z,4.67
2023-01-02T20:30:27.489Z,4.69
2023-01-02T20:32:57.114Z,4.70
2023-01-02T20:35:26.498Z,4.69
2023-01-02T20:37:55.713Z,4.66
2023-01-02T20:40:25.661Z,4.69
2023-01-02T20:42:54.978Z,4.77
2023-01-02T20:45:24.659Z,4.87
2023-01-02T20:47:54.494Z,4.92
2023-01-02T20:50:24.249Z,4.97
2023-01-02T20:52:56.889Z,5.01
2023-01-02T20:55:24.973Z,5.04
2023-01-02T20:57:54.501Z,5.07
2023-01-02T21:00:24.083Z,5.12
2023-01-02T21:02:53.946Z,5.15
2023-01-02T21:05:24.984Z,5.18
2023-01-02T21:07:54.434Z,5.20
2023-01-02T21:10:25.255Z,5.26
2023-01-02T21:13:10.893Z,5.25
2023-01-02T21:15:45.209Z,5.31
2023-01-02T21:18:18.487Z,5.31
2023-01-02T21:20:51.137Z,5.33
2023-01-02T21:23:20.283Z,5.36
2023-01-02T21:25:50.093Z,5.44
2023-01-02T21:28:21.699Z,5.45
2023-01-02T21:30:51.841Z,5.48
2023-01-02T21:33:23.080Z,5.56
2023-01-02T21:35:53.631Z,5.55
2023-01-02T21:38:24.132Z,5.55
2023-01-02T21:40:54.460Z,5.65
2023-01-02T21:43:24.430Z,5.69
2023-01-02T21:45:53.674Z,5.67
2023-01-02T21:48:23.590Z,5.69
2023-01-02T21:50:52.803Z,5.65
2023-01-02T21:53:22.168Z,5.68
2023-01-02T21:55:51.357Z,5.63
2023-01-02T21:58:21.117Z,5.61
2023-01-02T22:00:50.514Z,5.51
2023-01-02T22:03:20.330Z,5.42
2023-01-02T22:05:49.927Z,5.31
2023-01-02T22:08:19.490Z,5.29
2023-01-02T22:10:49.515Z,5.25
2023-01-02T22:13:18.955Z,5.17
2023-01-02T22:15:48.828Z,5.18
2023-01-02T22:18:20.819Z,5.27
2023-01-02T22:20:50.073Z,5.33
2023-01-02T22:23:19.525Z,5.38
2023-01-02T22:25:49.128Z,5.39
2023-01-02T22:28:18.938Z,5.42
2023-01-02T22:30:48.264Z,5.44
2023-01-02T22:33:18.158Z,5.48
2023-01-02T22:35:48.384Z,5.43
2023-01-02T22:38:17.747Z,5.39
2023-01-02T22:40:47.248Z,5.39
2023-01-02T22:43:22.498Z,5.43
2023-01-02T22:45:49.943Z,5.40
2023-01-02T22:48:22.399Z,5.39
2023-01-02T22:50:55.005Z,5.31
2023-01-02T22:53:28.512Z,5.18
2023-01-02T22:55:57.817Z,5.14
2023-01-02T22:58:27.293Z,5.02
2023-01-02T23:00:59.926Z,4.98
2023-01-02T23:03:35.312Z,4.90
2023-01-02T23:06:04.862Z,4.78
2023-01-02T23:08:35.085Z,4.67
2023-01-02T23:11:05.430Z,4.51
2023-01-02T23:13:36.195Z,4.53
2023-01-02T23:16:24.617Z,4.38
2023-01-02T23:19:12.247Z,4.26
2023-01-02T23:21:52.933Z,4.20
2023-01-02T23:24:24.786Z,4.09
2023-01-02T23:26:55.542Z,4.17
2023-01-02T23:29:26.096Z,4.16
2023-01-02T23:31:56.332Z,4.18
2023-01-02T23:34:27.390Z,4.05
2023-01-02T23:36:58.580Z,4.02
2023-01-02T23:39:29.895Z,4.11
2023-01-02T23:41:59.286Z,4.06
2023-01-02T23:44:28.667Z,4.07
2023-01-02T23:46:58.197Z,4.08
2023-01-02T23:49:27.395Z,4.06
2023-01-02T23:51:56.972Z,4.10
2023-01-02T23:54:26.185Z,4.09
2023-01-02T23:56:55.545Z,4.08
2023-01-02T23:59:26.027Z,4.11
